The Eastern Iowa Airport
KCID : now visible

Airfield :











YOU CAN JOIN US ON...

 
LOGIN :

Register | Disclaimer

   EN    FR    IT 

 









Legend :    VFR   Marginal VFR   IFR   Intensive IFR   Very Intensive IFR
Visi :
Ceiling :
>= 8 km
>= 3000ft
5 to 8 km
1000 to 3000 ft
1500m to 5 km
500 to 1000 ft
800 to 1500m
200 to 500 ft
< 800m
< 200 ft
Symbols :   Thunderstorms  Fog  Heavy snow  Heavy precipitations  Wind > 20 kt






- Airport Elevation : 869 ft
- IATA code : CID


KCID - The Eastern Iowa

CURRENT METAR :
  • 181219Z 08012KT 10SM -RA SCT022 OVC110 12/11 A2978 RMK AO2 LTG DSNT SE PRESFR P0003 T01170111

EXPIRED METARs :
  • 181152Z 10005KT 3SM RA BR BKN019 OVC110 12/11 A2982 RMK AO2 LTG DSNT S SLP097 P0008 60009 70009 T01170111 10150 20117 53001
  • 181145Z 13006KT 6SM RA BR BKN019 OVC110 12/11 A2982 RMK AO2 LTG DSNT S P0005 T01170111
  • 181101Z 09006KT 6SM -RA BR FEW075 OVC100 12/11 A2981 RMK AO2 LTG DSNT S AND SW P0001 T01220106
  • 181052Z 04008KT 7SM VCTS RA FEW037 SCT075 OVC100 13/11 A2981 RMK AO2 LTG DSNT S-W RAB09 SLP092 P0001 T01280106
  • 180952Z 09006KT 10SM FEW045 OVC100 14/09 A2981 RMK AO2 LTG DSNT SW AND W SLP092 T01390094

TAF KCID
Valid from the 18 at 12:00 until the 19 at 12:00 UTC


181120Z 1812/1912 09010KT P6SM -SHRA SCT010 OVC030
TEMPO 1812/1815 3SM -SHRA OVC015
FM181600 32008KT P6SM BKN025
FM182000 32007KT P6SM SCT025
FM190200 20005KT P6SM FEW250
KZAU FIR / North America



MET'MAP, your aeronautical weather chart ! - Copyright ORBIFLY December 2007 - Disclaimer

ORBIFLY MET'MAP TEAM :

Programming & Development : Alexandra Zaïnal
Original concept : Baudouin d'Aumeries
Technical & hardware support : Manuel Goepfert
Assistance : Marc-Olivier Méhu

Contact : metmap@orbifly.com




SOURCES & CREDITS :

   NOAA       Earth
Advisory